createdAt,value
2024-01-20T00:00:33.292Z,96.07
2024-01-20T00:03:41.207Z,96.63
2024-01-20T00:06:46.147Z,98.25
2024-01-20T00:09:52.513Z,97.26
2024-01-20T00:12:57.511Z,97.18
2024-01-20T00:16:02.563Z,98.43
2024-01-20T00:19:06.000Z,96.90
2024-01-20T00:22:09.398Z,97.65
2024-01-20T00:25:13.432Z,97.85
2024-01-20T00:28:16.387Z,97.16
2024-01-20T00:31:24.559Z,97.41
2024-01-20T00:34:30.634Z,98.87
2024-01-20T00:37:44.612Z,97.64
2024-01-20T00:40:57.751Z,99.24
2024-01-20T00:44:01.807Z,98.81
2024-01-20T00:47:04.468Z,99.89
2024-01-20T00:50:12.330Z,98.26
2024-01-20T00:53:15.637Z,98.05
2024-01-20T00:56:23.931Z,98.33
2024-01-20T00:59:27.774Z,99.67
2024-01-20T01:02:34.115Z,99.07
2024-01-20T01:05:37.182Z,99.83
2024-01-20T01:08:41.294Z,100.00
2024-01-20T01:11:43.731Z,100.00
2024-01-20T01:14:50.104Z,100.00
2024-01-20T01:17:55.871Z,100.00
2024-01-20T01:21:02.551Z,99.87
2024-01-20T01:24:06.482Z,100.00
2024-01-20T01:27:10.116Z,100.00
2024-01-20T01:30:15.580Z,99.07
2024-01-20T01:33:29.082Z,99.63
2024-01-20T01:36:32.131Z,99.26
2024-01-20T01:39:35.672Z,98.52
2024-01-20T01:42:38.544Z,98.89
2024-01-20T01:45:42.637Z,98.54
2024-01-20T01:48:48.660Z,98.83
2024-01-20T01:51:54.868Z,98.84
2024-01-20T01:54:59.202Z,99.07
2024-01-20T01:58:04.438Z,98.10
2024-01-20T02:01:11.133Z,98.97
2024-01-20T02:04:16.576Z,98.88
2024-01-20T02:07:20.561Z,97.37
2024-01-20T02:10:23.568Z,98.03
2024-01-20T02:13:27.541Z,98.58
2024-01-20T02:16:31.867Z,98.39
2024-01-20T02:19:42.208Z,99.44
2024-01-20T02:22:46.310Z,98.26
2024-01-20T02:25:50.565Z,99.04
2024-01-20T02:28:56.549Z,98.61
2024-01-20T02:31:59.532Z,98.90
2024-01-20T02:35:02.526Z,98.82
2024-01-20T02:38:06.736Z,98.82
2024-01-20T02:41:14.930Z,99.16
2024-01-20T02:44:21.185Z,99.38
2024-01-20T02:47:24.624Z,99.70
2024-01-20T02:50:28.719Z,99.20
2024-01-20T02:53:31.724Z,99.79
2024-01-20T02:56:37.509Z,100.00
2024-01-20T02:59:42.587Z,100.00
2024-01-20T03:02:46.581Z,100.00
2024-01-20T03:05:52.052Z,100.00
2024-01-20T03:08:56.190Z,100.00
2024-01-20T03:12:00.829Z,100.00
2024-01-20T03:15:04.785Z,100.00
2024-01-20T03:18:11.059Z,100.00
2024-01-20T03:21:14.437Z,100.00
2024-01-20T03:24:29.721Z,100.00
2024-01-20T03:27:33.694Z,100.00
2024-01-20T03:30:40.871Z,100.00
2024-01-20T03:33:46.943Z,100.00
2024-01-20T03:36:51.776Z,100.00
2024-01-20T03:39:56.088Z,100.00
2024-01-20T03:43:00.664Z,100.00
2024-01-20T03:46:05.240Z,100.00
2024-01-20T03:49:09.670Z,100.00
2024-01-20T03:52:13.604Z,100.00
2024-01-20T03:55:17.702Z,100.00
2024-01-20T03:58:20.858Z,100.00
2024-01-20T04:01:24.701Z,100.00
2024-01-20T04:04:29.494Z,100.00
2024-01-20T04:07:36.544Z,100.00
2024-01-20T04:10:40.875Z,100.00
2024-01-20T04:13:44.337Z,100.00
2024-01-20T04:16:50.843Z,100.00
2024-01-20T04:19:53.633Z,100.00
2024-01-20T04:22:57.307Z,100.00
2024-01-20T04:26:00.645Z,100.00
2024-01-20T04:29:03.911Z,99.66
2024-01-20T04:32:07.751Z,99.31
2024-01-20T04:35:11.018Z,98.81
2024-01-20T04:38:13.696Z,97.71
2024-01-20T04:41:17.038Z,98.31
2024-01-20T04:44:20.344Z,98.00
2024-01-20T04:47:23.832Z,97.70
2024-01-20T04:50:29.146Z,97.90
2024-01-20T04:53:32.338Z,98.67
2024-01-20T04:56:36.290Z,98.79
2024-01-20T04:59:39.852Z,98.29
2024-01-20T05:02:45.723Z,97.95
2024-01-20T05:05:48.415Z,98.08
2024-01-20T05:08:52.264Z,98.06
2024-01-20T05:11:56.672Z,98.65
2024-01-20T05:15:00.098Z,98.50
2024-01-20T05:18:04.689Z,98.11
2024-01-20T05:21:14.020Z,97.97
2024-01-20T05:24:19.257Z,98.46
2024-01-20T05:27:22.394Z,98.50
2024-01-20T05:30:26.574Z,97.83
2024-01-20T05:33:33.242Z,97.93
2024-01-20T05:36:38.007Z,97.96
2024-01-20T05:39:42.088Z,97.83
2024-01-20T05:42:47.338Z,98.11
2024-01-20T05:45:50.511Z,97.78
2024-01-20T05:48:53.429Z,98.14
2024-01-20T05:52:00.890Z,98.95
2024-01-20T05:55:04.064Z,97.88
2024-01-20T05:58:07.329Z,97.87
2024-01-20T06:01:18.027Z,97.48
2024-01-20T06:04:21.672Z,97.86
2024-01-20T06:07:25.268Z,99.61
2024-01-20T06:10:32.205Z,99.73
2024-01-20T06:13:35.726Z,100.00
2024-01-20T06:16:44.121Z,99.76
2024-01-20T06:19:52.843Z,100.00
2024-01-20T06:22:59.634Z,100.00
2024-01-20T06:26:08.361Z,100.00
2024-01-20T06:29:18.927Z,100.00
2024-01-20T06:32:34.572Z,100.00
2024-01-20T06:35:42.023Z,100.00
2024-01-20T06:38:48.569Z,100.00
2024-01-20T06:41:56.003Z,100.00
2024-01-20T06:45:01.930Z,100.00
2024-01-20T06:48:11.559Z,100.00
2024-01-20T06:51:27.868Z,100.00
2024-01-20T06:54:32.720Z,100.00
2024-01-20T06:57:38.847Z,100.00
2024-01-20T07:00:42.421Z,100.00
2024-01-20T07:03:51.139Z,100.00
2024-01-20T07:06:54.723Z,100.00
2024-01-20T07:09:59.736Z,100.00
2024-01-20T07:13:02.637Z,100.00
2024-01-20T07:16:14.605Z,100.00
2024-01-20T07:19:27.226Z,100.00
2024-01-20T07:22:38.137Z,100.00
2024-01-20T07:25:49.358Z,100.00
2024-01-20T07:28:52.781Z,100.00
2024-01-20T07:32:02.373Z,100.00
2024-01-20T07:35:06.845Z,100.00
2024-01-20T07:38:13.825Z,97.99
2024-01-20T07:41:19.720Z,97.42
2024-01-20T07:44:24.496Z,97.86
2024-01-20T07:47:39.598Z,96.44
2024-01-20T07:50:55.467Z,95.89
2024-01-20T07:54:06.892Z,96.09
2024-01-20T07:57:25.206Z,95.31
2024-01-20T08:00:32.744Z,93.30
2024-01-20T08:03:39.368Z,92.08
2024-01-20T08:06:58.898Z,90.81
2024-01-20T08:10:17.322Z,89.54
2024-01-20T08:13:28.570Z,91.52
2024-01-20T08:16:43.448Z,89.42
2024-01-20T08:19:55.290Z,89.64
2024-01-20T08:23:02.856Z,89.25
2024-01-20T08:26:15.234Z,89.19
2024-01-20T08:29:26.428Z,86.95
2024-01-20T08:32:35.323Z,87.35
2024-01-20T08:35:39.388Z,86.70
2024-01-20T08:38:46.037Z,85.31
2024-01-20T08:41:53.800Z,84.71
2024-01-20T08:45:00.798Z,85.36
2024-01-20T08:48:05.151Z,84.98
2024-01-20T08:51:10.778Z,84.00
2024-01-20T08:54:14.830Z,83.78
2024-01-20T08:57:19.363Z,84.05
2024-01-20T09:00:24.594Z,82.62
2024-01-20T09:03:29.707Z,82.36
2024-01-20T09:06:34.184Z,83.12
2024-01-20T09:09:38.284Z,81.44
2024-01-20T09:12:42.446Z,80.69
2024-01-20T09:15:47.181Z,80.96
2024-01-20T09:18:51.067Z,79.96
2024-01-20T09:21:54.650Z,80.42
2024-01-20T09:25:00.156Z,78.30
2024-01-20T09:28:05.656Z,78.95
2024-01-20T09:31:09.203Z,78.64
2024-01-20T09:34:13.754Z,78.48
2024-01-20T09:37:16.816Z,78.44
2024-01-20T09:40:21.573Z,75.93
2024-01-20T09:43:25.220Z,78.01
2024-01-20T09:46:29.127Z,74.93
2024-01-20T09:49:33.300Z,76.30
2024-01-20T09:52:43.767Z,75.65
2024-01-20T09:55:48.277Z,74.93
2024-01-20T09:58:54.311Z,74.59
2024-01-20T10:01:58.290Z,74.40
2024-01-20T10:05:04.503Z,75.40
2024-01-20T10:08:07.763Z,74.48
2024-01-20T10:11:11.049Z,74.56
2024-01-20T10:14:15.228Z,73.17
2024-01-20T10:17:17.916Z,72.44
2024-01-20T10:20:21.788Z,71.33
2024-01-20T10:23:25.117Z,71.13
2024-01-20T10:26:28.779Z,69.42
2024-01-20T10:29:31.927Z,70.73
2024-01-20T10:32:53.196Z,69.66
2024-01-20T10:36:00.864Z,71.19
2024-01-20T10:39:06.604Z,68.99
2024-01-20T10:42:12.164Z,68.95
2024-01-20T10:45:19.588Z,68.89
2024-01-20T10:48:36.831Z,66.83
2024-01-20T10:51:41.446Z,67.61
2024-01-20T10:54:48.939Z,67.27
2024-01-20T11:08:00.331Z,65.39
2024-01-20T11:11:04.183Z,64.30
2024-01-20T11:14:09.117Z,65.68
2024-01-20T11:17:14.171Z,66.68
2024-01-20T11:20:17.871Z,64.97
2024-01-20T11:23:21.091Z,63.92
2024-01-20T11:26:33.094Z,64.02
2024-01-20T11:29:37.412Z,64.20
2024-01-20T11:32:41.176Z,65.00
2024-01-20T11:35:44.221Z,63.89
2024-01-20T11:38:48.927Z,63.55
2024-01-20T11:42:02.838Z,64.41
2024-01-20T11:45:08.219Z,63.98
2024-01-20T11:48:14.901Z,64.40
2024-01-20T11:51:19.527Z,64.41
2024-01-20T11:54:23.091Z,64.75
2024-01-20T11:57:33.104Z,64.17
2024-01-20T12:00:37.063Z,64.28
2024-01-20T12:03:41.718Z,64.90
2024-01-20T12:06:45.006Z,64.47
2024-01-20T12:09:52.032Z,64.03
2024-01-20T12:12:55.139Z,62.51
2024-01-20T12:15:58.460Z,64.42
2024-01-20T12:19:02.088Z,65.08
2024-01-20T12:22:05.354Z,64.44
2024-01-20T12:25:08.816Z,63.52
2024-01-20T12:28:14.782Z,64.98
2024-01-20T12:31:21.600Z,62.34
2024-01-20T12:34:29.123Z,63.48
2024-01-20T12:37:33.944Z,64.31
2024-01-20T12:40:38.850Z,62.60
2024-01-20T12:43:42.633Z,63.57
2024-01-20T12:46:47.198Z,64.03
2024-01-20T12:49:52.127Z,63.12
2024-01-20T12:52:58.399Z,62.94
2024-01-20T12:56:02.218Z,62.75
2024-01-20T12:59:07.644Z,62.40
2024-01-20T13:02:10.933Z,62.40
2024-01-20T13:05:15.333Z,64.24
2024-01-20T13:08:24.386Z,62.44
2024-01-20T13:11:35.264Z,62.79
2024-01-20T13:14:39.060Z,61.17
2024-01-20T13:17:49.818Z,62.96
2024-01-20T13:20:53.036Z,64.68
2024-01-20T13:23:56.755Z,64.59
2024-01-20T13:27:03.327Z,65.12
2024-01-20T13:30:08.475Z,64.31
2024-01-20T13:33:14.428Z,64.32
2024-01-20T13:36:20.011Z,63.39
2024-01-20T13:39:27.402Z,64.52
2024-01-20T13:42:38.590Z,66.88
2024-01-20T13:45:49.781Z,65.84
2024-01-20T13:48:53.720Z,65.15
2024-01-20T13:51:56.233Z,66.79
2024-01-20T13:55:03.123Z,65.58
2024-01-20T13:58:06.524Z,66.39
2024-01-20T14:01:10.823Z,67.45
2024-01-20T14:04:15.078Z,68.60
2024-01-20T14:07:19.095Z,69.38
2024-01-20T14:10:28.529Z,70.66
2024-01-20T14:13:33.658Z,69.54
2024-01-20T14:16:47.307Z,70.36
2024-01-20T14:23:18.908Z,71.67
2024-01-20T14:26:22.642Z,71.56
2024-01-20T14:29:27.780Z,72.83
2024-01-20T14:32:34.937Z,72.71
2024-01-20T14:35:38.448Z,72.59
2024-01-20T14:38:44.491Z,71.85
2024-01-20T14:41:52.345Z,73.12
2024-01-20T14:44:56.906Z,74.97
2024-01-20T14:48:01.795Z,73.16
2024-01-20T14:51:06.209Z,72.60
2024-01-20T14:54:12.458Z,71.94
2024-01-20T14:57:17.023Z,73.53
2024-01-20T15:00:30.343Z,70.54
2024-01-20T15:03:38.495Z,73.26
2024-01-20T15:06:45.296Z,73.97
2024-01-20T15:09:51.743Z,74.64
2024-01-20T15:13:05.773Z,73.92
2024-01-20T15:16:11.595Z,73.58
2024-01-20T15:19:16.920Z,74.58
2024-01-20T15:22:26.082Z,77.95
2024-01-20T15:25:32.052Z,79.62
2024-01-20T15:28:47.002Z,80.39
2024-01-20T15:31:51.741Z,78.14
2024-01-20T15:35:01.407Z,78.20
2024-01-20T15:38:05.518Z,77.47
2024-01-20T15:41:12.923Z,79.70
2024-01-20T15:44:20.755Z,81.63
2024-01-20T15:47:23.602Z,82.54
2024-01-20T15:50:27.818Z,86.39
2024-01-20T15:53:32.239Z,85.53
2024-01-20T15:56:56.235Z,85.59
2024-01-20T16:00:02.058Z,86.76
2024-01-20T16:03:06.721Z,87.84
2024-01-20T16:06:21.111Z,87.25
2024-01-20T16:09:24.276Z,89.20
2024-01-20T16:12:33.651Z,87.48
2024-01-20T16:15:37.656Z,87.97
2024-01-20T16:18:42.819Z,88.30
2024-01-20T16:21:47.448Z,85.91
2024-01-20T16:24:52.651Z,85.74
2024-01-20T16:27:56.682Z,86.44
2024-01-20T16:31:05.894Z,86.46
2024-01-20T16:34:11.651Z,85.75
2024-01-20T16:37:15.073Z,87.98
2024-01-20T16:40:20.610Z,89.26
2024-01-20T16:43:27.562Z,89.06
2024-01-20T16:46:31.274Z,90.30
2024-01-20T16:49:43.590Z,88.98
2024-01-20T16:52:51.925Z,90.81
2024-01-20T16:55:56.752Z,90.62
2024-01-20T16:59:13.453Z,93.38
2024-01-20T17:02:22.495Z,90.45
2024-01-20T17:05:34.046Z,89.70
2024-01-20T17:08:42.707Z,93.37
2024-01-20T17:11:52.256Z,89.59
2024-01-20T17:14:59.668Z,88.84
2024-01-20T17:18:07.350Z,90.78
2024-01-20T17:21:20.034Z,91.01
2024-01-20T17:24:27.895Z,91.65
2024-01-20T17:27:36.420Z,92.13
2024-01-20T17:30:42.624Z,95.59
2024-01-20T17:33:47.557Z,95.58
2024-01-20T17:36:54.889Z,94.61
2024-01-20T17:40:01.264Z,95.21
2024-01-20T17:43:05.385Z,95.86
2024-01-20T17:46:14.221Z,95.81
2024-01-20T17:49:17.618Z,94.86
2024-01-20T17:52:21.415Z,96.85
2024-01-20T17:55:28.117Z,96.98
2024-01-20T17:58:33.164Z,99.39
2024-01-20T18:01:37.488Z,98.77
2024-01-20T18:04:42.209Z,100.00
2024-01-20T18:07:52.979Z,100.00
2024-01-20T18:11:00.175Z,100.00
2024-01-20T18:14:05.435Z,100.00
2024-01-20T18:17:13.603Z,100.00
2024-01-20T18:20:17.730Z,100.00
2024-01-20T18:23:33.020Z,100.00
2024-01-20T18:26:48.383Z,100.00
2024-01-20T18:29:51.371Z,100.00
2024-01-20T18:33:06.228Z,100.00
2024-01-20T18:36:20.910Z,100.00
2024-01-20T18:39:26.507Z,100.00
2024-01-20T18:42:37.741Z,100.00
2024-01-20T18:45:42.251Z,100.00
2024-01-20T18:48:48.866Z,100.00
2024-01-20T18:51:53.053Z,100.00
2024-01-20T18:55:00.689Z,100.00
2024-01-20T18:58:06.519Z,100.00
2024-01-20T19:01:11.632Z,100.00
2024-01-20T19:04:14.801Z,100.00
2024-01-20T19:07:18.672Z,100.00
2024-01-20T19:10:27.397Z,100.00
2024-01-20T19:13:32.024Z,100.00
2024-01-20T19:16:37.075Z,100.00
2024-01-20T19:19:46.723Z,100.00
2024-01-20T19:22:50.760Z,100.00
2024-01-20T19:25:54.877Z,100.00
2024-01-20T19:29:10.088Z,100.00
2024-01-20T19:32:13.562Z,100.00
2024-01-20T19:35:17.961Z,100.00
2024-01-20T19:38:25.488Z,100.00
2024-01-20T19:41:30.975Z,100.00
2024-01-20T19:44:35.408Z,100.00
2024-01-20T19:47:40.379Z,100.00
2024-01-20T19:50:45.350Z,100.00
2024-01-20T19:54:11.793Z,100.00
2024-01-20T19:57:48.994Z,100.00
2024-01-20T20:01:08.550Z,100.00
2024-01-20T20:11:22.250Z,100.00
2024-01-20T20:14:26.436Z,100.00
2024-01-20T20:28:37.125Z,100.00
2024-01-20T20:32:03.088Z,100.00
2024-01-20T20:35:27.544Z,100.00
2024-01-20T20:42:20.157Z,100.00
2024-01-20T20:45:38.552Z,100.00
2024-01-20T20:48:55.614Z,100.00
2024-01-20T20:52:31.877Z,100.00
2024-01-20T20:55:50.540Z,100.00
2024-01-20T20:58:54.264Z,100.00
2024-01-20T21:19:36.088Z,100.00
2024-01-20T21:22:55.541Z,100.00
2024-01-20T21:26:12.347Z,100.00
2024-01-20T21:29:28.240Z,100.00
2024-01-20T21:32:56.150Z,100.00
2024-01-20T21:36:18.810Z,100.00
2024-01-20T21:39:23.992Z,100.00
2024-01-20T21:43:00.389Z,100.00
2024-01-20T21:46:22.337Z,100.00
2024-01-20T21:53:21.252Z,100.00
2024-01-20T21:56:39.410Z,100.00
2024-01-20T22:00:00.578Z,100.00
2024-01-20T22:03:11.953Z,100.00
2024-01-20T22:06:21.496Z,100.00
2024-01-20T22:09:32.141Z,100.00
2024-01-20T22:12:52.999Z,100.00
2024-01-20T22:16:01.417Z,100.00
2024-01-20T22:19:08.124Z,100.00
2024-01-20T22:22:23.746Z,100.00
2024-01-20T22:25:35.215Z,100.00
2024-01-20T22:28:44.152Z,100.00
2024-01-20T22:31:55.086Z,100.00
2024-01-20T22:35:06.986Z,100.00
2024-01-20T22:38:12.770Z,100.00
2024-01-20T22:41:17.848Z,100.00
2024-01-20T22:44:28.690Z,100.00
2024-01-20T22:47:33.736Z,100.00
2024-01-20T22:50:43.474Z,100.00
2024-01-20T22:53:52.406Z,100.00
2024-01-20T22:57:01.952Z,100.00
2024-01-20T23:00:44.148Z,100.00
2024-01-20T23:04:02.105Z,100.00
2024-01-20T23:07:29.280Z,100.00
2024-01-20T23:11:05.847Z,100.00
2024-01-20T23:14:10.190Z,100.00
2024-01-20T23:17:27.437Z,100.00
2024-01-20T23:20:36.546Z,100.00
2024-01-20T23:23:56.728Z,100.00
2024-01-20T23:27:15.290Z,100.00
2024-01-20T23:30:40.487Z,100.00
2024-01-20T23:34:01.188Z,100.00
2024-01-20T23:37:06.656Z,100.00
2024-01-20T23:40:27.358Z,100.00
2024-01-20T23:43:50.228Z,100.00
2024-01-20T23:47:18.887Z,100.00
2024-01-20T23:50:39.357Z,100.00
2024-01-20T23:53:51.848Z,100.00
